Time;durP1;ratioP1;P1;durP2;ratioP2;P2;SDS_P1;SDS_P2;PMS_P1;PMS_P2;Temp;Humidity;BMP_temperature;BMP_pressure;BME280_temperature;BME280_humidity;BME280_pressure;Samples;Min_cycle;Max_cycle;Signal;HPM_P1;HPM_P2
2022/11/19 00:00:38;;;;;;;4.25;3.50;;;2.20;99.90;;;;;;5056777;28;20059;-76
2022/11/19 00:03:04;;;;;;;6.10;3.85;;;2.10;99.90;;;;;;5062543;28;20052;-76
2022/11/19 00:05:29;;;;;;;5.20;3.50;;;2.10;99.90;;;;;;5059721;28;20098;-76
2022/11/19 00:07:55;;;;;;;5.50;3.30;;;2.50;99.90;;;;;;5066726;28;20123;-76
2022/11/19 00:10:21;;;;;;;6.82;3.42;;;2.00;99.90;;;;;;5060956;28;20044;-76
2022/11/19 00:12:55;;;;;;;4.43;3.55;;;2.10;99.90;;;;;;5060010;28;20048;-75
2022/11/19 00:15:22;;;;;;;5.68;3.78;;;2.40;99.90;;;;;;5064881;28;20531;-76
2022/11/19 00:17:48;;;;;;;4.38;3.60;;;2.60;99.90;;;;;;5059332;28;20060;-76
2022/11/19 00:20:14;;;;;;;4.68;3.55;;;1.80;99.90;;;;;;5062797;28;20047;-76
2022/11/19 00:22:43;;;;;;;5.53;3.83;;;1.80;99.90;;;;;;5062471;28;20510;-76
2022/11/19 00:25:10;;;;;;;5.53;3.88;;;1.70;99.90;;;;;;5062797;28;20083;-76
2022/11/19 00:27:35;;;;;;;6.45;3.58;;;1.60;99.90;;;;;;5060673;28;20048;-75
2022/11/19 00:30:03;;;;;;;5.05;3.95;;;1.60;99.90;;;;;;5061219;28;20052;-76
2022/11/19 00:32:30;;;;;;;7.20;3.70;;;1.50;99.90;;;;;;5057793;28;20044;-76
2022/11/19 00:34:56;;;;;;;4.15;3.40;;;1.70;99.90;;;;;;5064358;28;20458;-76
2022/11/19 00:37:23;;;;;;;4.82;4.43;;;1.50;99.90;;;;;;5094295;27;20044;-76
2022/11/19 00:39:48;;;;;;;4.43;3.78;;;1.50;99.90;;;;;;5065432;28;20043;-75
2022/11/19 00:42:14;;;;;;;4.80;3.78;;;1.40;99.90;;;;;;5060920;28;20044;-75
2022/11/19 00:44:40;;;;;;;5.78;4.25;;;2.90;99.90;;;;;;5054596;28;20048;-76
2022/11/19 00:47:05;;;;;;;6.25;4.03;;;1.80;99.90;;;;;;5064037;28;20040;-75
2022/11/19 00:49:31;;;;;;;5.15;4.25;;;1.40;99.90;;;;;;5054754;28;20127;-76
2022/11/19 00:51:57;;;;;;;5.55;3.63;;;1.90;99.90;;;;;;5065084;28;20048;-76
2022/11/19 00:54:22;;;;;;;5.85;3.97;;;2.10;99.90;;;;;;5057799;28;20074;-75
2022/11/19 00:56:48;;;;;;;4.43;3.60;;;1.20;99.90;;;;;;5061142;28;20132;-76
2022/11/19 00:59:14;;;;;;;4.25;3.70;;;1.80;99.90;;;;;;5060321;28;20082;-76
2022/11/19 01:01:39;;;;;;;4.93;4.47;;;1.20;99.90;;;;;;5055210;28;20516;-76
2022/11/19 01:04:05;;;;;;;7.05;4.35;;;1.20;99.90;;;;;;5056148;28;20804;-76
2022/11/19 01:06:31;;;;;;;5.03;4.40;;;2.10;99.90;;;;;;5056534;28;20048;-75
2022/11/19 01:08:57;;;;;;;5.53;4.18;;;1.10;99.90;;;;;;5054881;28;20571;-77
2022/11/19 01:11:27;;;;;;;4.28;3.83;;;1.30;99.90;;;;;;5056701;28;20052;-76
2022/11/19 01:13:54;;;;;;;4.78;4.05;;;1.10;99.90;;;;;;5076888;28;20093;-75
2022/11/19 01:16:26;;;;;;;5.40;3.67;;;1.40;99.90;;;;;;5044038;28;21413;-76
2022/11/19 01:18:52;;;;;;;6.93;4.32;;;1.40;99.90;;;;;;5053079;28;20064;-76
2022/11/19 01:21:20;;;;;;;4.88;4.43;;;2.30;99.90;;;;;;5059368;28;20094;-75
2022/11/19 01:23:47;;;;;;;5.78;5.18;;;1.60;99.90;;;;;;5055701;28;20066;-75
2022/11/19 01:26:13;;;;;;;5.88;5.03;;;1.70;99.90;;;;;;5058279;28;20055;-76
2022/11/19 01:28:39;;;;;;;5.57;4.32;;;1.20;99.90;;;;;;5066606;28;20044;-76
2022/11/19 01:31:26;;;;;;;5.47;4.45;;;0.90;99.90;;;;;;5060821;28;20047;-76
2022/11/19 01:33:52;;;;;;;5.10;4.50;;;1.30;99.90;;;;;;5054811;28;20044;-75
2022/11/19 01:36:23;;;;;;;6.32;4.13;;;1.90;99.90;;;;;;5054046;28;20510;-77
2022/11/19 01:38:50;;;;;;;4.78;4.28;;;1.90;99.90;;;;;;5057353;28;20127;-76
2022/11/19 01:41:25;;;;;;;6.00;4.50;;;2.40;99.90;;;;;;5056470;28;20056;-75
2022/11/19 01:44:17;;;;;;;5.82;3.92;;;1.20;99.90;;;;;;5055766;28;20060;-76
2022/11/19 01:46:43;;;;;;;5.95;5.05;;;1.50;99.90;;;;;;5057812;28;20087;-76
2022/11/19 01:49:16;;;;;;;6.75;4.40;;;0.80;99.90;;;;;;5058078;28;20127;-76
2022/11/19 01:51:50;;;;;;;4.57;4.18;;;0.80;99.90;;;;;;5057985;28;21041;-76
2022/11/19 01:54:28;;;;;;;6.32;4.43;;;2.60;99.90;;;;;;5055420;28;20112;-76
2022/11/19 01:56:57;;;;;;;5.28;4.70;;;0.80;99.90;;;;;;5059527;28;20549;-76
2022/11/19 01:59:23;;;;;;;5.80;4.20;;;0.90;99.90;;;;;;5092664;27;20044;-76
2022/11/19 02:01:48;;;;;;;4.57;3.97;;;0.90;99.90;;;;;;5060287;28;20854;-77
2022/11/19 02:04:16;;;;;;;6.88;5.13;;;1.50;99.90;;;;;;5057473;28;20511;-77
2022/11/19 02:06:44;;;;;;;4.97;4.28;;;0.80;99.90;;;;;;5060792;28;20574;-76
2022/11/19 02:09:09;;;;;;;6.65;4.40;;;0.80;99.90;;;;;;5061263;28;20055;-76
2022/11/19 02:12:03;;;;;;;5.70;4.65;;;0.90;99.90;;;;;;5060012;28;20048;-77
2022/11/19 02:14:47;;;;;;;5.57;4.00;;;0.80;99.90;;;;;;5060988;28;20083;-77
2022/11/19 02:17:50;;;;;;;5.65;4.38;;;0.70;99.90;;;;;;5055628;28;20416;-77
2022/11/19 02:20:28;;;;;;;5.33;3.97;;;0.70;99.90;;;;;;5059564;28;20044;-77
2022/11/19 02:23:11;;;;;;;5.25;3.97;;;0.70;99.90;;;;;;5096113;27;20056;-77
2022/11/19 02:26:14;;;;;;;5.13;4.15;;;0.60;99.90;;;;;;5059573;28;20063;-76
2022/11/19 02:29:05;;;;;;;4.88;3.95;;;0.60;99.90;;;;;;5052694;28;20064;-77
2022/11/19 02:31:30;;;;;;;5.90;4.25;;;1.50;99.90;;;;;;5058729;28;20119;-77
2022/11/19 02:34:26;;;;;;;5.85;4.47;;;0.50;99.90;;;;;;5074663;28;20086;-76
2022/11/19 02:37:04;;;;;;;5.80;4.30;;;0.50;99.90;;;;;;5057128;28;20064;-76
2022/11/19 02:39:49;;;;;;;5.65;4.07;;;0.50;99.90;;;;;;5058163;28;20828;-77
2022/11/19 02:42:21;;;;;;;6.45;4.15;;;0.40;99.90;;;;;;5069933;28;20072;-76
2022/11/19 02:44:58;;;;;;;6.15;4.47;;;1.70;99.90;;;;;;5060021;28;20128;-77
2022/11/19 02:47:48;;;;;;;6.22;4.45;;;0.40;99.90;;;;;;5068449;28;20051;-76
2022/11/19 02:50:19;;;;;;;6.97;4.72;;;0.40;99.90;;;;;;5055091;28;20130;-76
2022/11/19 02:52:46;;;;;;;5.20;4.70;;;0.30;99.90;;;;;;5059982;28;20048;-76
2022/11/19 02:55:13;;;;;;;5.03;4.40;;;0.30;99.90;;;;;;5058559;28;20501;-75
2022/11/19 02:57:42;;;;;;;5.68;4.18;;;1.70;99.90;;;;;;5057473;28;20056;-76
2022/11/19 03:05:42;;;;;;;4.95;4.30;;;0.10;99.90;;;;;;5062035;28;20132;-77
2022/11/19 03:08:07;;;;;;;6.57;4.80;;;1.30;99.90;;;;;;5064546;28;20055;-76
2022/11/19 03:10:53;;;;;;;6.80;4.88;;;0.00;99.90;;;;;;5064165;28;20048;-76
2022/11/19 03:19:06;;;;;;;5.82;4.65;;;-0.10;99.90;;;;;;5058051;28;20063;-76
2022/11/19 03:21:42;;;;;;;6.75;4.70;;;0.70;99.90;;;;;;5068458;28;20110;-76
2022/11/19 03:24:14;;;;;;;6.18;5.22;;;-0.10;99.90;;;;;;5059795;28;20040;-76
2022/11/19 03:26:59;;;;;;;6.37;5.13;;;-0.10;99.90;;;;;;5064749;28;20052;-76
2022/11/19 03:29:26;;;;;;;5.32;4.80;;;-0.10;99.90;;;;;;5058085;28;20047;-76
2022/11/19 03:32:00;;;;;;;7.95;5.22;;;-0.10;99.90;;;;;;5057959;28;21003;-76
2022/11/19 03:34:28;;;;;;;5.43;4.93;;;-0.10;99.90;;;;;;5055551;28;20164;-76
2022/11/19 03:36:58;;;;;;;6.22;5.32;;;-0.20;99.90;;;;;;5061062;28;20064;-76
2022/11/19 03:39:24;;;;;;;6.35;4.68;;;-0.20;99.90;;;;;;5065306;28;20124;-77
2022/11/19 03:41:51;;;;;;;5.75;4.32;;;-0.10;99.90;;;;;;5057361;28;20048;-77
2022/11/19 03:44:27;;;;;;;7.75;5.32;;;-0.10;99.90;;;;;;5063190;28;20041;-76
2022/11/19 03:46:59;;;;;;;6.90;5.03;;;-0.10;99.90;;;;;;5058642;28;20380;-76
2022/11/19 03:49:33;;;;;;;5.95;4.75;;;-0.20;99.90;;;;;;5066398;28;20043;-77
2022/11/19 03:52:07;;;;;;;6.35;5.50;;;0.10;99.90;;;;;;5059115;28;20051;-76
2022/11/19 03:54:33;;;;;;;6.10;4.53;;;-0.20;99.90;;;;;;5065647;28;20143;-76
2022/11/19 03:56:59;;;;;;;7.63;5.22;;;-0.20;99.90;;;;;;5055264;28;20048;-76
2022/11/19 03:59:26;;;;;;;6.10;5.10;;;-0.20;99.90;;;;;;5060381;28;20122;-76
2022/11/19 04:01:57;;;;;;;6.00;5.40;;;0.60;99.90;;;;;;5067604;28;20051;-77
2022/11/19 04:04:35;;;;;;;7.07;4.50;;;-0.10;99.90;;;;;;5058630;28;20079;-76
2022/11/19 04:07:22;;;;;;;6.53;4.80;;;0.60;99.90;;;;;;5056515;28;20055;-77
2022/11/19 04:09:48;;;;;;;7.32;4.65;;;-0.30;99.90;;;;;;5056178;28;20056;-76
2022/11/19 04:12:17;;;;;;;5.90;5.18;;;-0.20;99.90;;;;;;5057871;28;20049;-77
2022/11/19 04:14:43;;;;;;;6.03;4.95;;;-0.20;99.90;;;;;;5059088;28;20861;-76
2022/11/19 04:17:09;;;;;;;6.63;5.00;;;0.00;99.90;;;;;;5065055;28;20570;-77
2022/11/19 04:19:35;;;;;;;6.93;4.97;;;-0.30;99.90;;;;;;5053087;28;20106;-77
2022/11/19 04:22:01;;;;;;;6.38;4.88;;;0.70;99.90;;;;;;5051726;28;20517;-77
2022/11/19 04:24:26;;;;;;;6.53;5.45;;;-0.30;99.90;;;;;;5060774;28;20051;-76
2022/11/19 04:26:52;;;;;;;7.47;5.25;;;0.20;99.90;;;;;;5053402;28;20132;-76
2022/11/19 04:29:18;;;;;;;5.15;4.50;;;-0.40;99.90;;;;;;5066348;28;20391;-77
2022/11/19 04:31:43;;;;;;;5.82;5.22;;;-0.10;99.90;;;;;;5073804;28;20118;-76
2022/11/19 04:34:09;;;;;;;6.95;5.05;;;-0.40;99.90;;;;;;5061067;28;20052;-76
2022/11/19 04:36:35;;;;;;;5.80;4.65;;;-0.30;99.90;;;;;;5058121;28;20052;-76
2022/11/19 04:39:00;;;;;;;6.20;4.97;;;-0.40;99.90;;;;;;5067709;28;20496;-76
2022/11/19 04:41:26;;;;;;;6.72;5.22;;;-0.40;99.90;;;;;;5057492;28;20044;-76
2022/11/19 04:43:52;;;;;;;8.95;5.80;;;-0.40;99.90;;;;;;5060237;28;20045;-76
2022/11/19 04:46:18;;;;;;;6.95;5.97;;;-0.40;99.90;;;;;;5056772;28;20052;-77
2022/11/19 04:48:44;;;;;;;9.55;5.50;;;0.30;99.90;;;;;;5057745;28;20155;-76
2022/11/19 04:51:09;;;;;;;7.70;6.28;;;-0.40;99.90;;;;;;5056529;28;20819;-76
2022/11/19 04:53:35;;;;;;;7.47;6.32;;;-0.40;99.90;;;;;;5058034;28;20068;-75
2022/11/19 04:56:01;;;;;;;9.35;6.43;;;-0.50;99.90;;;;;;5058889;28;20054;-76
2022/11/19 04:58:26;;;;;;;10.82;6.13;;;-0.50;99.90;;;;;;5089447;27;20045;-76
2022/11/19 05:00:52;;;;;;;10.38;5.93;;;-0.50;99.90;;;;;;5057809;28;20158;-76
2022/11/19 05:03:18;;;;;;;8.82;5.50;;;-0.50;99.90;;;;;;5057684;28;20141;-76
2022/11/19 05:05:44;;;;;;;10.45;6.18;;;-0.50;99.90;;;;;;5056742;28;20836;-76
2022/11/19 05:08:09;;;;;;;7.97;6.00;;;-0.50;99.90;;;;;;5058212;28;20176;-77
2022/11/19 05:10:35;;;;;;;7.20;5.80;;;0.30;99.90;;;;;;5060146;28;20068;-76
2022/11/19 05:13:01;;;;;;;9.35;5.25;;;-0.50;99.90;;;;;;5064652;28;20505;-76
2022/11/19 05:15:26;;;;;;;6.57;5.68;;;-0.60;99.90;;;;;;5059296;28;20055;-76
2022/11/19 05:17:52;;;;;;;8.30;5.72;;;0.20;99.90;;;;;;5059200;28;20060;-76
2022/11/19 05:20:18;;;;;;;6.95;5.80;;;-0.60;99.90;;;;;;5056446;28;20143;-76
2022/11/19 05:22:43;;;;;;;7.30;5.88;;;-0.60;99.90;;;;;;5042829;28;20837;-76
2022/11/19 05:25:09;;;;;;;6.78;5.38;;;-0.60;99.90;;;;;;5054044;28;20045;-76
2022/11/19 05:27:35;;;;;;;7.93;5.70;;;-0.70;99.90;;;;;;5063000;28;20112;-76
2022/11/19 05:30:00;;;;;;;8.05;5.93;;;-0.70;99.90;;;;;;5059079;28;20159;-77
2022/11/19 05:32:26;;;;;;;7.60;5.93;;;-0.70;99.90;;;;;;5057302;28;20075;-76
2022/11/19 05:34:52;;;;;;;8.02;5.38;;;-0.70;99.90;;;;;;5057953;28;20923;-75
2022/11/19 05:37:17;;;;;;;9.63;6.35;;;-0.70;99.90;;;;;;5090091;28;20080;-75
2022/11/19 05:39:43;;;;;;;8.98;6.80;;;0.10;99.90;;;;;;5060034;28;20057;-74
2022/11/19 05:42:08;;;;;;;6.65;5.82;;;-0.70;99.90;;;;;;5059523;28;20080;-74
2022/11/19 05:44:34;;;;;;;7.63;5.85;;;-0.70;99.90;;;;;;5055745;28;20049;-75
2022/11/19 05:47:00;;;;;;;9.77;6.30;;;1.00;99.90;;;;;;5055837;28;20044;-75
2022/11/19 05:49:25;;;;;;;9.40;6.85;;;-0.70;99.90;;;;;;5059294;28;20565;-75
2022/11/19 05:51:51;;;;;;;8.30;6.00;;;-0.80;99.90;;;;;;5060315;28;20110;-75
2022/11/19 05:54:17;;;;;;;8.18;6.13;;;-0.80;99.90;;;;;;5053684;28;20056;-75
2022/11/19 05:56:43;;;;;;;11.90;6.20;;;-0.80;99.90;;;;;;5051705;28;20059;-75
2022/11/19 05:59:08;;;;;;;8.02;6.13;;;-0.80;99.90;;;;;;5054931;28;20048;-75
2022/11/19 06:01:34;;;;;;;7.75;6.20;;;-0.20;99.90;;;;;;5056959;28;20053;-74
2022/11/19 06:04:00;;;;;;;8.45;6.13;;;-0.80;99.90;;;;;;5055192;28;20048;-75
2022/11/19 06:06:26;;;;;;;9.77;5.82;;;-0.90;99.90;;;;;;5055044;28;20102;-75
2022/11/19 06:08:52;;;;;;;9.15;6.47;;;-0.20;99.90;;;;;;5046574;28;20040;-75
2022/11/19 06:14:01;;;;;;;9.73;6.20;;;-0.90;99.90;;;;;;5057088;28;20052;-75
2022/11/19 06:16:27;;;;;;;9.80;6.32;;;0.60;99.90;;;;;;5054431;28;21015;-75
2022/11/19 06:18:53;;;;;;;9.93;6.95;;;0.40;99.90;;;;;;5057937;28;20555;-75
2022/11/19 06:21:19;;;;;;;8.80;6.68;;;-0.90;99.90;;;;;;5061089;28;20063;-75
2022/11/19 06:23:45;;;;;;;12.70;6.82;;;-0.90;99.90;;;;;;5060210;28;20585;-75
2022/11/19 06:26:20;;;;;;;9.20;6.85;;;-0.90;99.90;;;;;;5061714;28;20357;-75
2022/11/19 06:28:45;;;;;;;9.98;6.55;;;0.10;99.90;;;;;;5068185;28;20446;-75
2022/11/19 06:31:11;;;;;;;11.90;6.63;;;-0.90;99.90;;;;;;5065597;28;20496;-74
2022/11/19 06:33:37;;;;;;;11.63;7.68;;;-1.00;99.90;;;;;;5056136;28;20044;-75
2022/11/19 06:36:03;;;;;;;11.90;7.38;;;-0.90;99.90;;;;;;5063538;28;20044;-74
2022/11/19 06:38:28;;;;;;;8.80;6.57;;;-1.00;99.90;;;;;;5059266;28;20156;-75
2022/11/19 06:40:54;;;;;;;11.85;6.72;;;-1.00;99.90;;;;;;5063849;28;20059;-74
2022/11/19 06:43:19;;;;;;;9.70;7.22;;;-1.00;99.90;;;;;;5061728;28;20052;-75
2022/11/19 06:45:45;;;;;;;11.68;6.15;;;-1.00;99.90;;;;;;5062134;28;20130;-74
2022/11/19 06:48:11;;;;;;;11.77;7.60;;;-1.00;99.90;;;;;;5062564;28;20040;-74
2022/11/19 06:50:36;;;;;;;9.57;7.20;;;0.60;99.90;;;;;;5064568;28;20044;-74
2022/11/19 06:53:02;;;;;;;8.98;5.82;;;-0.50;99.90;;;;;;5071017;28;20043;-75
2022/11/19 06:55:28;;;;;;;8.52;5.82;;;0.20;99.90;;;;;;5066566;28;20663;-75
2022/11/19 06:57:53;;;;;;;8.90;6.35;;;-0.70;99.90;;;;;;5062374;28;20119;-74
2022/11/19 07:00:19;;;;;;;9.10;6.10;;;0.80;99.90;;;;;;5065467;28;20048;-74
2022/11/19 07:02:46;;;;;;;8.30;6.80;;;-1.00;99.90;;;;;;5062500;28;20113;-74
2022/11/19 07:05:11;;;;;;;8.02;5.72;;;-1.10;99.90;;;;;;5064896;28;20040;-75
2022/11/19 07:07:37;;;;;;;10.13;6.80;;;-1.10;99.90;;;;;;5060379;28;20053;-74
2022/11/19 07:10:03;;;;;;;10.55;7.57;;;-1.10;99.90;;;;;;5065633;28;20043;-74
2022/11/19 07:12:29;;;;;;;8.77;6.47;;;-1.10;99.90;;;;;;5063235;28;20113;-75
2022/11/19 07:14:54;;;;;;;8.88;6.50;;;-0.10;99.90;;;;;;5065143;28;20056;-75
2022/11/19 07:17:20;;;;;;;9.65;6.38;;;0.20;99.90;;;;;;5058314;28;20040;-74
2022/11/19 07:19:46;;;;;;;6.45;5.80;;;-1.10;99.90;;;;;;5057409;28;20057;-74
2022/11/19 07:22:11;;;;;;;8.57;6.10;;;-1.10;99.90;;;;;;5057747;28;20055;-74
2022/11/19 07:24:37;;;;;;;8.00;6.35;;;-1.10;99.90;;;;;;5062661;28;20131;-75
2022/11/19 07:27:03;;;;;;;10.93;7.90;;;-1.30;99.90;;;;;;5058623;28;20052;-75
2022/11/19 07:29:28;;;;;;;7.97;6.30;;;-0.20;99.90;;;;;;5064651;28;20044;-75
2022/11/19 07:31:54;;;;;;;10.43;7.63;;;0.60;99.90;;;;;;5065724;28;20073;-74
2022/11/19 07:34:20;;;;;;;9.77;7.60;;;-0.90;99.90;;;;;;5063144;28;20044;-74
2022/11/19 07:36:47;;;;;;;9.73;7.45;;;0.20;99.90;;;;;;5058015;28;20664;-73
2022/11/19 07:39:12;;;;;;;13.70;7.63;;;-1.10;99.90;;;;;;5058925;28;20760;-76
2022/11/19 07:44:22;;;;;;;9.18;7.43;;;-1.00;99.90;;;;;;5056660;28;20417;-76
2022/11/19 07:46:48;;;;;;;11.63;7.55;;;-0.90;99.90;;;;;;5059741;28;20543;-76
2022/11/19 07:49:14;;;;;;;9.48;7.30;;;-0.30;99.90;;;;;;5060088;28;20048;-76
2022/11/19 07:51:39;;;;;;;12.32;8.13;;;-1.00;99.90;;;;;;5060402;28;20056;-78
2022/11/19 07:54:05;;;;;;;9.13;7.35;;;-1.00;99.90;;;;;;5060507;28;20041;-77
2022/11/19 07:56:31;;;;;;;8.90;6.78;;;-1.00;99.90;;;;;;5065084;28;20044;-77
2022/11/19 07:59:00;;;;;;;9.88;7.03;;;-0.90;99.90;;;;;;5074759;28;20050;-77
2022/11/19 08:01:25;;;;;;;9.20;7.53;;;0.50;99.90;;;;;;5069989;28;20066;-77
2022/11/19 08:03:52;;;;;;;10.88;7.10;;;0.50;99.90;;;;;;5099097;27;20494;-77
2022/11/19 08:06:19;;;;;;;12.00;7.50;;;-0.80;99.90;;;;;;5064351;28;20144;-77
2022/11/19 08:08:45;;;;;;;8.73;6.68;;;-0.80;99.90;;;;;;5096103;27;20216;-77
2022/11/19 08:11:12;;;;;;;12.02;7.30;;;-0.80;99.90;;;;;;5057401;28;20045;-77
2022/11/19 08:13:39;;;;;;;8.50;7.00;;;-0.20;99.90;;;;;;5059438;28;20543;-77
2022/11/19 08:16:08;;;;;;;10.70;7.32;;;-0.70;99.90;;;;;;5058966;28;20120;-77
2022/11/19 08:18:33;;;;;;;11.23;7.85;;;-0.70;99.90;;;;;;5055930;28;20575;-77
2022/11/19 08:21:10;;;;;;;11.38;7.75;;;-0.60;99.90;;;;;;5055726;28;20048;-76
2022/11/19 08:23:37;;;;;;;11.50;7.85;;;-0.60;99.90;;;;;;5057132;28;20059;-77
2022/11/19 08:26:06;;;;;;;9.82;6.60;;;0.60;99.90;;;;;;5055402;28;20090;-77
2022/11/19 08:28:32;;;;;;;11.43;8.00;;;-0.50;99.90;;;;;;5066425;28;20044;-77
2022/11/19 08:31:08;;;;;;;10.82;7.30;;;-0.40;99.90;;;;;;5055258;28;20074;-77
2022/11/19 08:33:34;;;;;;;9.82;7.45;;;-0.40;99.90;;;;;;5074852;28;20052;-77
2022/11/19 08:36:00;;;;;;;9.75;7.68;;;-0.30;99.90;;;;;;5057538;28;20052;-78
2022/11/19 08:38:25;;;;;;;10.57;6.80;;;-0.20;99.90;;;;;;5059963;28;20406;-76
2022/11/19 08:42:58;;;;;;;9.45;8.23;;;-0.20;99.90;;;;;;5066274;28;20491;-77
2022/11/19 08:43:38;;;;;;;9.20;7.25;;;1.00;99.90;;;;;;5054584;28;20228;-77
2022/11/19 08:46:04;;;;;;;11.18;8.00;;;-0.10;99.90;;;;;;5055080;28;20574;-77
2022/11/19 08:48:30;;;;;;;10.45;7.35;;;-0.10;99.90;;;;;;5061940;28;20064;-77
2022/11/19 08:50:55;;;;;;;11.15;7.38;;;0.00;99.90;;;;;;5068383;28;20562;-77
2022/11/19 08:53:21;;;;;;;9.77;6.82;;;0.10;99.90;;;;;;5067119;28;21306;-76
2022/11/19 08:55:50;;;;;;;10.57;7.43;;;0.00;99.90;;;;;;5058486;28;20044;-76
2022/11/19 08:58:16;;;;;;;10.18;7.57;;;0.10;99.90;;;;;;5063786;28;20369;-77
2022/11/19 09:00:42;;;;;;;10.23;7.53;;;1.30;99.90;;;;;;5068252;28;20383;-76
2022/11/19 09:03:07;;;;;;;12.50;8.07;;;0.20;99.90;;;;;;5063230;28;20041;-76
2022/11/19 09:05:33;;;;;;;8.98;7.13;;;0.20;99.90;;;;;;5070242;28;20147;-76
2022/11/19 09:07:59;;;;;;;9.98;7.20;;;0.80;99.90;;;;;;5067187;28;20051;-76
2022/11/19 09:10:25;;;;;;;7.95;7.13;;;0.30;99.90;;;;;;5054459;28;20055;-76
2022/11/19 09:12:52;;;;;;;8.55;6.80;;;0.40;99.90;;;;;;5057226;28;20097;-76
2022/11/19 09:15:18;;;;;;;10.50;7.25;;;0.70;99.90;;;;;;5056071;28;20280;-78
2022/11/19 09:17:44;;;;;;;12.55;8.00;;;0.40;99.90;;;;;;5054626;28;20950;-77
2022/11/19 09:20:10;;;;;;;8.32;7.40;;;1.40;99.90;;;;;;5054913;28;20167;-77
2022/11/19 09:22:36;;;;;;;11.35;7.82;;;0.50;99.90;;;;;;5056231;28;20048;-77
2022/11/19 09:25:03;;;;;;;11.13;7.72;;;0.70;99.90;;;;;;5055496;28;20048;-77
2022/11/19 09:27:28;;;;;;;8.75;7.55;;;0.50;99.90;;;;;;5056655;28;20048;-77
2022/11/19 09:29:54;;;;;;;8.70;7.80;;;0.60;99.90;;;;;;5061936;28;20043;-79
2022/11/19 09:32:20;;;;;;;9.90;7.32;;;1.80;99.90;;;;;;5055786;28;20060;-80
2022/11/19 09:34:45;;;;;;;7.85;7.05;;;0.70;99.90;;;;;;5058837;28;20045;-77
2022/11/19 09:37:11;;;;;;;12.48;8.15;;;0.70;99.90;;;;;;5060569;28;20154;-76
2022/11/19 09:39:37;;;;;;;12.32;7.47;;;2.10;99.90;;;;;;5058605;28;20071;-76
2022/11/19 09:42:13;;;;;;;10.57;7.60;;;1.10;99.90;;;;;;5071007;28;20044;-76
2022/11/19 09:45:01;;;;;;;10.48;7.68;;;1.20;99.90;;;;;;5058662;28;20047;-76
2022/11/19 09:47:45;;;;;;;14.05;8.15;;;1.20;99.90;;;;;;5049867;28;20860;-76
2022/11/19 09:50:24;;;;;;;12.20;7.80;;;1.30;99.90;;;;;;5059769;28;20049;-76
2022/11/19 09:53:08;;;;;;;9.65;7.03;;;1.00;99.90;;;;;;5073221;28;20562;-76
2022/11/19 09:55:38;;;;;;;12.52;7.53;;;1.10;99.90;;;;;;5058692;28;20056;-76
2022/11/19 09:58:11;;;;;;;11.65;8.25;;;1.50;99.90;;;;;;5058004;28;20080;-76
2022/11/19 10:00:37;;;;;;;;;;;1.20;99.90;;;;;;5077124;28;20117;-76
2022/11/19 10:03:12;;;;;;;9.50;7.70;;;2.10;99.90;;;;;;5059990;28;20334;-76
2022/11/19 10:05:49;;;;;;;8.65;6.72;;;1.50;99.90;;;;;;5062148;28;20132;-76
2022/11/19 10:08:45;;;;;;;9.90;7.55;;;1.60;99.90;;;;;;5057137;28;20567;-76
2022/11/19 10:11:35;;;;;;;10.30;7.45;;;1.50;99.90;;;;;;5052828;28;20227;-76
2022/11/19 10:14:14;;;;;;;9.55;7.13;;;1.40;99.90;;;;;;5064620;28;20052;-75
2022/11/19 10:17:14;;;;;;;11.68;7.40;;;1.50;99.90;;;;;;5052948;28;20139;-75
2022/11/19 10:20:01;;;;;;;9.13;7.15;;;1.60;99.90;;;;;;5065204;28;20060;-75
2022/11/19 10:22:39;;;;;;;8.18;6.60;;;1.70;99.90;;;;;;5061560;28;20052;-76
2022/11/19 10:25:17;;;;;;;9.50;7.22;;;1.70;99.90;;;;;;5065423;28;20161;-75
2022/11/19 10:27:59;;;;;;;9.45;7.05;;;1.70;99.90;;;;;;5060086;28;20821;-76
2022/11/19 10:30:27;;;;;;;8.35;6.75;;;2.30;99.90;;;;;;5058583;28;20511;-76
2022/11/19 10:33:19;;;;;;;8.68;7.15;;;1.90;99.90;;;;;;5061094;28;20072;-76
2022/11/19 10:35:49;;;;;;;10.68;6.65;;;1.90;99.90;;;;;;5008160;28;20056;-76
2022/11/19 10:38:21;;;;;;;8.95;6.60;;;2.00;99.90;;;;;;5063023;28;20059;-76
2022/11/19 10:40:55;;;;;;;9.02;6.38;;;2.00;99.90;;;;;;5060383;28;20044;-74
2022/11/19 10:43:45;;;;;;;7.85;6.45;;;3.00;99.90;;;;;;5067293;28;20055;-75
2022/11/19 10:46:13;;;;;;;10.50;6.47;;;3.30;99.90;;;;;;5060335;28;20052;-76
2022/11/19 10:48:42;;;;;;;8.63;6.40;;;2.20;99.90;;;;;;5061177;28;20049;-76
2022/11/19 10:51:46;;;;;;;6.88;5.72;;;2.50;99.90;;;;;;5057157;28;20044;-77
2022/11/19 10:54:24;;;;;;;;;;;2.20;99.90;;;;;;5052742;28;20037;-76
2022/11/19 10:56:52;;;;;;;8.45;6.65;;;2.10;99.90;;;;;;5057174;28;20003;-76
2022/11/19 10:59:23;;;;;;;7.97;6.95;;;2.30;99.90;;;;;;5059818;28;20047;-76
2022/11/19 11:01:54;;;;;;;10.18;6.45;;;2.30;99.90;;;;;;5068108;28;20091;-76
2022/11/19 11:04:26;;;;;;;8.55;6.35;;;2.30;99.90;;;;;;5070237;28;20108;-77
2022/11/19 11:07:02;;;;;;;8.45;6.80;;;2.40;99.90;;;;;;5062359;28;20052;-76
2022/11/19 11:09:34;;;;;;;9.50;6.40;;;2.40;99.90;;;;;;5062604;28;20180;-76
2022/11/19 11:15:16;;;;;;;7.82;5.47;;;2.50;99.90;;;;;;5061070;28;20049;-76
2022/11/19 11:17:44;;;;;;;8.43;6.30;;;3.50;99.90;;;;;;5073405;28;20060;-76
2022/11/19 11:20:16;;;;;;;7.30;5.90;;;2.60;99.90;;;;;;5054612;28;20080;-78
2022/11/19 11:22:44;;;;;;;9.00;6.50;;;2.80;99.90;;;;;;5062087;28;20151;-76
2022/11/19 11:25:39;;;;;;;7.35;5.85;;;2.80;99.90;;;;;;5059082;28;20372;-76
2022/11/19 11:28:15;;;;;;;8.80;6.05;;;2.70;99.90;;;;;;5053468;28;20640;-76
2022/11/19 11:31:02;;;;;;;6.07;5.13;;;2.80;99.90;;;;;;5059045;28;20048;-77
2022/11/19 11:33:34;;;;;;;7.10;6.15;;;2.80;99.90;;;;;;5057400;28;20051;-76
2022/11/19 11:36:07;;;;;;;6.65;5.72;;;2.90;99.90;;;;;;5058446;28;20052;-77
2022/11/19 11:38:48;;;;;;;9.77;5.82;;;3.00;99.90;;;;;;5055731;28;20502;-76
2022/11/19 11:41:17;;;;;;;8.30;6.13;;;3.00;99.90;;;;;;5058671;28;20917;-76
2022/11/19 11:44:02;;;;;;;7.78;5.30;;;3.00;99.90;;;;;;5056383;28;20056;-76
2022/11/19 11:46:43;;;;;;;8.23;5.78;;;3.10;99.90;;;;;;5069014;28;20049;-76
2022/11/19 11:49:32;;;;;;;6.00;5.22;;;3.10;99.90;;;;;;5057569;28;20052;-76
2022/11/19 11:52:09;;;;;;;6.90;6.03;;;3.10;99.90;;;;;;5048074;28;20044;-77
2022/11/19 11:54:52;;;;;;;6.65;5.57;;;3.20;99.90;;;;;;5055526;28;20052;-77
2022/11/19 11:57:25;;;;;;;7.38;5.32;;;3.20;99.90;;;;;;5058474;28;20058;-76
2022/11/19 11:59:51;;;;;;;7.47;4.95;;;3.20;99.90;;;;;;5057931;28;20091;-77
2022/11/19 12:02:32;;;;;;;7.03;6.35;;;3.60;99.90;;;;;;5068623;28;20131;-76
2022/11/19 12:05:03;;;;;;;8.00;5.28;;;3.30;99.90;;;;;;5071454;28;20222;-76
2022/11/19 12:07:44;;;;;;;8.05;5.93;;;3.40;99.90;;;;;;5066447;28;20623;-77
2022/11/19 12:10:21;;;;;;;8.15;5.13;;;3.50;99.90;;;;;;5066188;28;20143;-77
2022/11/19 12:13:13;;;;;;;8.30;5.95;;;3.50;99.90;;;;;;5063289;28;20048;-77
2022/11/19 12:15:48;;;;;;;5.85;4.70;;;3.50;99.90;;;;;;5056791;28;20084;-77
2022/11/19 12:18:38;;;;;;;7.40;5.10;;;3.60;99.90;;;;;;5055230;28;20067;-77
2022/11/19 12:21:10;;;;;;;7.03;5.18;;;3.80;99.90;;;;;;5057749;28;20048;-77
2022/11/19 12:23:54;;;;;;;6.93;5.40;;;3.60;99.90;;;;;;5063360;28;20054;-78
2022/11/19 12:26:47;;;;;;;6.88;5.25;;;3.70;99.90;;;;;;5058703;28;20097;-77
2022/11/19 12:29:46;;;;;;;5.93;5.07;;;3.70;99.90;;;;;;5055866;28;20055;-78
2022/11/19 12:32:39;;;;;;;6.13;4.45;;;3.70;99.90;;;;;;5054786;28;20048;-77
2022/11/19 12:35:17;;;;;;;6.90;4.25;;;3.70;99.90;;;;;;5067420;28;20048;-77
2022/11/19 12:37:48;;;;;;;6.55;4.68;;;3.80;99.90;;;;;;5065209;28;20040;-82
2022/11/19 12:40:20;;;;;;;5.10;4.38;;;3.80;99.90;;;;;;5059916;28;20083;-82
2022/11/19 12:43:10;;;;;;;6.60;4.88;;;3.70;99.90;;;;;;5057473;28;20044;-81
2022/11/19 12:46:10;;;;;;;6.45;5.18;;;3.70;99.90;;;;;;5048026;28;20134;-78
2022/11/19 12:48:56;;;;;;;5.97;4.13;;;3.80;99.90;;;;;;5065107;28;20044;-77
2022/11/19 12:51:34;;;;;;;4.78;3.88;;;3.80;99.90;;;;;;5084341;28;20195;-77
2022/11/19 12:54:11;;;;;;;5.50;4.60;;;3.80;99.90;;;;;;5058790;28;20498;-78
2022/11/19 12:56:50;;;;;;;6.40;4.38;;;4.10;99.90;;;;;;5069391;28;20088;-78
2022/11/19 12:59:27;;;;;;;5.57;4.60;;;3.90;99.90;;;;;;5067745;28;20039;-78
2022/11/19 13:01:56;;;;;;;6.68;4.55;;;3.90;99.90;;;;;;5053623;28;20126;-77
2022/11/19 13:04:37;;;;;;;8.23;5.47;;;3.90;99.90;;;;;;5065192;28;20048;-78
2022/11/19 13:07:32;;;;;;;6.47;4.50;;;3.90;99.90;;;;;;5057611;28;20044;-78
2022/11/19 13:10:17;;;;;;;4.70;4.18;;;3.90;99.90;;;;;;5054003;28;20060;-79
2022/11/19 13:12:51;;;;;;;6.00;4.80;;;3.90;99.90;;;;;;5061452;28;20086;-78
2022/11/19 13:15:41;;;;;;;5.15;4.65;;;3.90;99.90;;;;;;5054944;28;20086;-78
2022/11/19 13:18:15;;;;;;;4.60;4.10;;;3.90;99.90;;;;;;5058018;28;20429;-78
2022/11/19 13:20:54;;;;;;;7.15;5.55;;;3.90;99.90;;;;;;5059144;28;20052;-77
2022/11/19 13:23:27;;;;;;;7.22;5.10;;;3.80;99.90;;;;;;5054638;28;20093;-77
2022/11/19 13:26:10;;;;;;;6.55;5.28;;;3.80;99.90;;;;;;5060292;28;20446;-78
2022/11/19 13:28:58;;;;;;;6.97;4.55;;;3.70;99.90;;;;;;5061488;28;20128;-80
2022/11/19 13:31:30;;;;;;;7.72;5.55;;;3.70;99.90;;;;;;5056195;28;20056;-78
2022/11/19 13:34:18;;;;;;;7.47;5.25;;;3.70;99.90;;;;;;5061451;28;20271;-78